createdAt,value
2022-12-03T00:00:17.269Z,22.60
2022-12-03T00:02:45.861Z,23.60
2022-12-03T00:05:14.543Z,25.00
2022-12-03T00:07:43.111Z,23.60
2022-12-03T00:10:13.507Z,22.50
2022-12-03T00:12:43.451Z,25.50
2022-12-03T00:15:12.843Z,22.40
2022-12-03T00:17:41.378Z,25.77
2022-12-03T00:20:13.189Z,24.37
2022-12-03T00:22:41.824Z,23.10
2022-12-03T00:25:11.053Z,24.67
2022-12-03T00:27:39.596Z,23.40
2022-12-03T00:30:12.574Z,24.67
2022-12-03T00:32:51.268Z,22.47
2022-12-03T00:35:19.999Z,22.13
2022-12-03T00:37:48.607Z,26.97
2022-12-03T00:40:17.260Z,24.97
2022-12-03T00:42:45.826Z,26.50
2022-12-03T00:45:15.876Z,22.97
2022-12-03T00:47:44.355Z,24.13
2022-12-03T00:50:13.600Z,23.27
2022-12-03T00:52:42.072Z,24.83
2022-12-03T00:55:12.993Z,23.03
2022-12-03T00:57:42.142Z,25.50
2022-12-03T01:00:13.723Z,23.87
2022-12-03T01:02:43.808Z,20.80
2022-12-03T01:05:12.501Z,24.40
2022-12-03T01:07:41.101Z,22.67
2022-12-03T01:10:10.922Z,24.30
2022-12-03T01:12:39.593Z,22.50
2022-12-03T01:15:10.001Z,23.43
2022-12-03T01:17:39.227Z,23.97
2022-12-03T01:20:12.172Z,23.57
2022-12-03T01:22:40.722Z,24.33
2022-12-03T01:25:10.294Z,23.60
2022-12-03T01:27:38.766Z,25.90
2022-12-03T01:30:10.770Z,22.70
2022-12-03T01:32:38.465Z,21.63
2022-12-03T01:35:09.459Z,22.60
2022-12-03T01:37:37.987Z,21.07
2022-12-03T01:40:09.792Z,24.90
2022-12-03T01:42:42.635Z,25.23
2022-12-03T01:45:22.071Z,24.60
2022-12-03T01:47:51.164Z,22.70
2022-12-03T01:50:28.648Z,21.83
2022-12-03T01:53:01.234Z,24.83
2022-12-03T01:55:30.345Z,24.00
2022-12-03T01:58:02.967Z,23.57
2022-12-03T02:00:31.976Z,23.87
2022-12-03T02:03:05.051Z,25.30
2022-12-03T02:05:36.364Z,23.20
2022-12-03T02:08:33.704Z,26.10
2022-12-03T02:11:06.984Z,23.70
2022-12-03T02:13:51.799Z,23.40
2022-12-03T02:16:20.662Z,25.60
2022-12-03T02:18:49.981Z,22.63
2022-12-03T02:21:28.956Z,22.43
2022-12-03T02:24:13.176Z,23.37
2022-12-03T02:26:43.250Z,25.23
2022-12-03T02:29:12.027Z,25.23
2022-12-03T02:31:40.731Z,21.93
2022-12-03T02:34:10.407Z,23.73
2022-12-03T02:36:40.307Z,24.93
2022-12-03T02:39:09.186Z,26.80
2022-12-03T02:41:55.160Z,23.47
2022-12-03T02:44:25.085Z,25.07
2022-12-03T02:46:53.711Z,22.80
2022-12-03T02:49:22.340Z,25.30
2022-12-03T02:51:51.339Z,25.83
2022-12-03T02:54:20.143Z,23.23
2022-12-03T02:56:48.775Z,25.20
2022-12-03T02:59:17.772Z,25.10
2022-12-03T03:01:48.233Z,24.17
2022-12-03T03:04:17.515Z,24.93
2022-12-03T03:06:46.853Z,24.40
2022-12-03T03:09:15.461Z,25.50
2022-12-03T03:11:44.216Z,26.70
2022-12-03T03:14:13.317Z,27.13
2022-12-03T03:16:41.987Z,27.10
2022-12-03T03:19:12.584Z,25.43
2022-12-03T03:21:41.164Z,27.37
2022-12-03T03:24:10.986Z,24.70
2022-12-03T03:26:39.529Z,25.90
2022-12-03T03:29:08.420Z,25.80
2022-12-03T03:31:37.589Z,24.13
2022-12-03T03:34:06.457Z,24.43
2022-12-03T03:36:37.271Z,25.47
2022-12-03T03:39:07.647Z,25.30
2022-12-03T03:41:37.360Z,25.23
2022-12-03T03:44:09.631Z,23.70
2022-12-03T03:46:38.902Z,25.50
2022-12-03T03:49:09.651Z,24.53
2022-12-03T03:51:40.741Z,23.60
2022-12-03T03:54:10.029Z,23.83
2022-12-03T03:56:39.116Z,23.00
2022-12-03T03:59:07.699Z,23.13
2022-12-03T04:01:36.964Z,23.07
2022-12-03T04:04:07.922Z,25.10
2022-12-03T04:06:36.462Z,24.83
2022-12-03T04:09:06.379Z,22.20
2022-12-03T04:11:52.344Z,22.90
2022-12-03T04:14:20.897Z,24.00
2022-12-03T04:16:50.589Z,24.27
2022-12-03T04:19:19.546Z,24.30
2022-12-03T04:22:05.680Z,24.90
2022-12-03T04:24:35.674Z,23.80
2022-12-03T04:27:21.867Z,26.03
2022-12-03T04:29:50.382Z,25.10
2022-12-03T04:32:36.817Z,22.67
2022-12-03T04:35:24.174Z,24.77
2022-12-03T04:37:52.864Z,23.70
2022-12-03T04:40:40.390Z,23.50
2022-12-03T04:43:09.069Z,21.97
2022-12-03T04:45:37.712Z,24.00
2022-12-03T04:48:06.925Z,20.40
2022-12-03T04:50:35.624Z,23.67
2022-12-03T04:53:04.138Z,23.87
2022-12-03T04:55:34.235Z,23.53
2022-12-03T04:58:03.017Z,22.40
2022-12-03T05:00:31.652Z,23.43
2022-12-03T05:03:00.413Z,23.53
2022-12-03T05:05:28.973Z,22.97
2022-12-03T05:07:57.687Z,23.47
2022-12-03T05:10:36.178Z,21.47
2022-12-03T05:13:04.822Z,22.53
2022-12-03T05:15:33.443Z,23.77
2022-12-03T05:18:01.943Z,21.60
2022-12-03T05:20:44.764Z,27.27
2022-12-03T05:23:18.343Z,25.53
2022-12-03T05:25:48.564Z,27.70
2022-12-03T05:28:17.233Z,26.10
2022-12-03T05:30:45.820Z,22.20
2022-12-03T05:33:14.454Z,21.87
2022-12-03T05:35:43.057Z,21.63
2022-12-03T05:38:11.659Z,20.90
2022-12-03T05:40:40.220Z,22.00
2022-12-03T05:43:09.287Z,21.00
2022-12-03T05:45:40.840Z,23.10
2022-12-03T05:48:11.884Z,22.13
2022-12-03T05:50:44.348Z,21.13
2022-12-03T05:53:17.539Z,23.43
2022-12-03T05:55:46.974Z,22.30
2022-12-03T05:58:16.954Z,22.57
2022-12-03T06:00:45.562Z,22.03
2022-12-03T06:03:14.278Z,20.87
2022-12-03T06:05:42.939Z,24.00
2022-12-03T06:08:13.780Z,20.40
2022-12-03T06:10:42.639Z,20.67
2022-12-03T06:13:11.161Z,20.80
2022-12-03T06:15:44.006Z,21.07
2022-12-03T06:18:12.836Z,20.40
2022-12-03T06:20:41.579Z,19.70
2022-12-03T06:23:10.189Z,21.33
2022-12-03T06:25:38.719Z,20.37
2022-12-03T06:28:07.492Z,20.00
2022-12-03T06:30:43.945Z,19.53
2022-12-03T06:33:12.794Z,21.20
2022-12-03T06:35:41.335Z,19.10
2022-12-03T06:38:09.911Z,19.33
2022-12-03T06:40:45.923Z,19.30
2022-12-03T06:43:14.584Z,18.57
2022-12-03T06:45:47.894Z,18.20
2022-12-03T06:48:17.009Z,16.27
2022-12-03T06:50:45.569Z,15.43
2022-12-03T06:53:14.272Z,17.17
2022-12-03T06:55:42.786Z,16.80
2022-12-03T06:58:11.318Z,15.73
2022-12-03T07:00:53.920Z,16.37
2022-12-03T07:03:24.410Z,16.30
2022-12-03T07:05:53.225Z,17.20
2022-12-03T07:08:21.902Z,19.00
2022-12-03T07:10:50.426Z,18.40
2022-12-03T07:13:18.958Z,20.00
2022-12-03T07:15:49.005Z,17.73
2022-12-03T07:18:17.932Z,14.77
2022-12-03T07:20:46.719Z,14.37
2022-12-03T07:23:15.196Z,17.23
2022-12-03T07:25:43.838Z,14.60
2022-12-03T07:28:12.471Z,16.63
2022-12-03T07:30:41.046Z,17.60
2022-12-03T07:33:11.147Z,18.40
2022-12-03T07:35:39.716Z,16.83
2022-12-03T07:38:08.363Z,17.20
2022-12-03T07:40:36.919Z,17.80
2022-12-03T07:43:05.648Z,18.00
2022-12-03T07:45:34.247Z,16.50
2022-12-03T07:48:02.887Z,17.53
2022-12-03T07:50:32.913Z,17.87
2022-12-03T07:53:01.429Z,16.63
2022-12-03T07:55:30.066Z,19.23
2022-12-03T07:57:58.658Z,17.50
2022-12-03T08:00:27.519Z,16.17
2022-12-03T08:02:56.770Z,17.90
2022-12-03T08:05:27.090Z,17.63
2022-12-03T08:07:57.310Z,16.53
2022-12-03T08:10:58.252Z,16.70
2022-12-03T08:13:32.879Z,17.10
2022-12-03T08:16:15.526Z,14.17
2022-12-03T08:18:44.977Z,16.50
2022-12-03T08:21:16.455Z,15.50
2022-12-03T08:23:46.956Z,16.13
2022-12-03T08:26:24.292Z,15.97
2022-12-03T08:28:54.033Z,15.43
2022-12-03T08:31:32.291Z,15.47
2022-12-03T08:34:18.696Z,15.50
2022-12-03T08:36:48.921Z,14.30
2022-12-03T08:39:33.279Z,13.73
2022-12-03T08:42:31.556Z,13.80
2022-12-03T08:45:42.717Z,14.00
2022-12-03T08:48:36.860Z,15.60
2022-12-03T08:51:20.349Z,15.17
2022-12-03T08:53:54.284Z,14.10
2022-12-03T08:56:31.195Z,14.20
2022-12-03T08:59:04.068Z,14.40
2022-12-03T09:01:39.537Z,12.80
2022-12-03T09:04:28.368Z,14.63
2022-12-03T09:07:00.259Z,14.07
2022-12-03T09:09:29.233Z,16.70
2022-12-03T09:11:59.183Z,14.30
2022-12-03T09:14:27.763Z,14.03
2022-12-03T09:16:57.065Z,15.20
2022-12-03T09:19:27.967Z,13.10
2022-12-03T09:21:56.692Z,13.07
2022-12-03T09:24:25.428Z,14.43
2022-12-03T09:26:54.126Z,13.47
2022-12-03T09:29:24.231Z,12.83
2022-12-03T09:31:54.631Z,13.40
2022-12-03T09:34:23.461Z,12.67
2022-12-03T09:36:51.917Z,13.73
2022-12-03T09:39:20.906Z,11.90
2022-12-03T09:41:50.822Z,13.53
2022-12-03T09:44:20.662Z,15.37
2022-12-03T09:46:51.289Z,12.67
2022-12-03T09:49:20.869Z,13.57
2022-12-03T09:51:49.725Z,14.30
2022-12-03T09:54:25.457Z,13.30
2022-12-03T09:56:58.712Z,12.67
2022-12-03T09:59:33.186Z,13.27
2022-12-03T10:02:06.800Z,12.40
2022-12-03T10:04:35.699Z,14.60
2022-12-03T10:07:04.453Z,12.70
2022-12-03T10:09:35.457Z,12.50
2022-12-03T10:12:04.467Z,12.73
2022-12-03T10:14:33.295Z,12.47
2022-12-03T10:17:03.540Z,11.50
2022-12-03T10:19:35.676Z,10.87
2022-12-03T10:22:04.897Z,12.23
2022-12-03T10:24:35.786Z,11.87
2022-12-03T10:27:20.511Z,17.77
2022-12-03T10:29:57.372Z,12.60
2022-12-03T10:32:41.643Z,11.07
2022-12-03T10:35:14.817Z,12.63
2022-12-03T10:38:02.509Z,11.80
2022-12-03T10:40:33.539Z,12.63
2022-12-03T10:43:21.462Z,11.00
2022-12-03T10:46:11.131Z,21.50
2022-12-03T10:48:41.152Z,11.90
2022-12-03T10:51:21.398Z,11.27
2022-12-03T10:53:52.244Z,9.70
2022-12-03T10:56:28.121Z,13.07
2022-12-03T10:58:57.320Z,10.70
2022-12-03T11:01:27.807Z,10.63
2022-12-03T11:04:05.591Z,12.03
2022-12-03T11:06:34.332Z,10.93
2022-12-03T11:09:08.767Z,12.13
2022-12-03T11:11:38.099Z,13.00
2022-12-03T11:14:07.184Z,12.30
2022-12-03T11:17:09.948Z,13.10
2022-12-03T11:19:50.238Z,13.03
2022-12-03T11:22:40.965Z,11.17
2022-12-03T11:25:51.493Z,11.77
2022-12-03T11:28:53.299Z,14.30
2022-12-03T11:31:43.768Z,13.97
2022-12-03T11:34:42.057Z,13.70
2022-12-03T11:37:27.600Z,13.07
2022-12-03T11:40:26.628Z,12.10
2022-12-03T11:42:55.297Z,13.73
2022-12-03T11:45:35.158Z,12.93
2022-12-03T11:48:13.745Z,16.00
2022-12-03T11:50:48.499Z,12.50
2022-12-03T11:53:23.688Z,12.53
2022-12-03T11:56:06.592Z,13.10
2022-12-03T11:58:38.201Z,11.20
2022-12-03T12:01:09.366Z,13.23
2022-12-03T12:03:45.933Z,12.80
2022-12-03T12:06:17.727Z,12.10
2022-12-03T12:09:00.324Z,12.03
2022-12-03T12:11:31.425Z,16.43
2022-12-03T12:14:02.165Z,11.83
2022-12-03T12:16:50.283Z,10.80
2022-12-03T12:19:43.827Z,12.90
2022-12-03T12:22:30.123Z,12.00
2022-12-03T12:25:01.618Z,11.80
2022-12-03T12:27:37.795Z,13.00
2022-12-03T12:30:13.797Z,11.67
2022-12-03T12:32:47.731Z,10.57
2022-12-03T12:35:20.430Z,11.63
2022-12-03T12:37:58.957Z,9.70
2022-12-03T12:40:33.913Z,11.37
2022-12-03T12:43:12.017Z,12.57
2022-12-03T12:45:45.143Z,11.23
2022-12-03T12:48:23.537Z,11.80
2022-12-03T12:50:59.952Z,10.70
2022-12-03T12:53:31.728Z,12.30
2022-12-03T12:56:08.496Z,11.90
2022-12-03T12:58:37.878Z,11.63
2022-12-03T13:01:18.682Z,11.80
2022-12-03T13:03:51.627Z,12.10
2022-12-03T13:06:27.293Z,11.57
2022-12-03T13:08:58.100Z,10.60
2022-12-03T13:11:41.441Z,11.20
2022-12-03T13:14:18.667Z,10.40
2022-12-03T13:16:48.545Z,11.43
2022-12-03T13:19:26.849Z,12.33
2022-12-03T13:21:57.965Z,11.00
2022-12-03T13:24:34.982Z,10.30
2022-12-03T13:27:25.669Z,10.77
2022-12-03T13:30:01.182Z,10.53
2022-12-03T13:32:34.281Z,10.70
2022-12-03T13:35:07.820Z,10.60
2022-12-03T13:37:38.034Z,10.40
2022-12-03T13:40:22.463Z,11.50
2022-12-03T13:42:54.253Z,12.40
2022-12-03T13:45:37.931Z,11.80
2022-12-03T13:48:22.885Z,12.10
2022-12-03T13:50:53.846Z,11.90
2022-12-03T13:53:25.619Z,12.83
2022-12-03T13:56:02.115Z,12.37
2022-12-03T13:58:32.190Z,12.30
2022-12-03T14:01:15.794Z,12.17
2022-12-03T14:03:45.468Z,11.77
2022-12-03T14:06:14.432Z,11.53
2022-12-03T14:08:43.230Z,11.10
2022-12-03T14:11:33.231Z,13.20
2022-12-03T14:14:03.202Z,12.83
2022-12-03T14:16:32.064Z,13.00
2022-12-03T14:19:00.755Z,14.07
2022-12-03T14:21:33.063Z,13.10
2022-12-03T14:24:07.124Z,12.90
2022-12-03T14:26:35.761Z,12.10
2022-12-03T14:29:08.723Z,11.43
2022-12-03T14:31:37.827Z,13.03
2022-12-03T14:34:06.568Z,13.23
2022-12-03T14:36:35.196Z,12.07
2022-12-03T14:39:03.849Z,11.37
2022-12-03T14:41:49.968Z,12.90
2022-12-03T14:44:21.845Z,11.20
2022-12-03T14:46:56.564Z,10.40
2022-12-03T14:49:25.800Z,11.10
2022-12-03T14:51:54.614Z,11.67
2022-12-03T14:54:23.601Z,11.30
2022-12-03T14:56:52.147Z,11.47
2022-12-03T14:59:27.474Z,11.13
2022-12-03T15:01:57.179Z,12.70
2022-12-03T15:04:26.121Z,11.30
2022-12-03T15:06:54.842Z,10.80
2022-12-03T15:09:23.743Z,12.00
2022-12-03T15:11:52.416Z,11.00
2022-12-03T15:14:22.514Z,9.10
2022-12-03T15:16:51.317Z,12.70
2022-12-03T15:19:20.028Z,11.10
2022-12-03T15:21:48.631Z,10.50
2022-12-03T15:24:17.180Z,11.30
2022-12-03T15:26:46.144Z,9.93
2022-12-03T15:29:15.160Z,11.73
2022-12-03T15:31:45.168Z,11.07
2022-12-03T15:34:18.725Z,9.70
2022-12-03T15:36:50.673Z,11.20
2022-12-03T15:39:19.200Z,11.83
2022-12-03T15:41:49.138Z,11.00
2022-12-03T15:44:18.902Z,10.67
2022-12-03T15:46:48.851Z,11.97
2022-12-03T15:49:18.333Z,11.10
2022-12-03T15:51:46.895Z,10.77
2022-12-03T15:54:15.535Z,10.90
2022-12-03T15:56:44.249Z,12.30
2022-12-03T15:59:13.404Z,11.10
2022-12-03T16:01:42.186Z,11.80
2022-12-03T16:04:12.519Z,10.87
2022-12-03T16:06:41.282Z,12.57
2022-12-03T16:09:09.873Z,12.30
2022-12-03T16:11:38.808Z,13.50
2022-12-03T16:14:07.508Z,12.13
2022-12-03T16:16:36.548Z,12.70
2022-12-03T16:19:05.194Z,13.67
2022-12-03T16:21:35.649Z,12.30
2022-12-03T16:24:04.761Z,12.60
2022-12-03T16:26:33.522Z,13.80
2022-12-03T16:29:02.222Z,12.97
2022-12-03T16:31:31.438Z,12.60
2022-12-03T16:34:00.416Z,11.93
2022-12-03T16:36:29.139Z,11.07
2022-12-03T16:38:59.135Z,12.97
2022-12-03T16:41:27.978Z,13.70
2022-12-03T16:43:56.622Z,15.53
2022-12-03T16:46:26.811Z,14.00
2022-12-03T16:48:57.972Z,13.07
2022-12-03T16:51:28.000Z,14.03
2022-12-03T16:53:57.965Z,12.10
2022-12-03T16:56:26.568Z,13.13
2022-12-03T16:58:55.084Z,13.30
2022-12-03T17:01:24.217Z,11.93
2022-12-03T17:03:52.964Z,12.20
2022-12-03T17:06:21.513Z,13.17
2022-12-03T17:08:50.362Z,13.77
2022-12-03T17:11:20.527Z,13.60
2022-12-03T17:13:48.966Z,14.87
2022-12-03T17:16:17.625Z,14.60
2022-12-03T17:18:46.367Z,13.57
2022-12-03T17:21:14.884Z,12.03
2022-12-03T17:23:44.738Z,13.37
2022-12-03T17:26:15.183Z,12.70
2022-12-03T17:28:45.731Z,11.83
2022-12-03T17:31:14.935Z,11.60
2022-12-03T17:33:44.065Z,12.50
2022-12-03T17:36:12.870Z,12.70
2022-12-03T17:38:41.537Z,12.67
2022-12-03T17:41:10.142Z,13.43
2022-12-03T17:43:38.728Z,12.03
2022-12-03T17:46:08.845Z,10.87
2022-12-03T17:48:37.884Z,11.70
2022-12-03T17:51:09.500Z,12.30
2022-12-03T17:53:38.079Z,11.70
2022-12-03T17:56:07.284Z,11.40
2022-12-03T17:58:35.939Z,11.43
2022-12-03T18:01:05.627Z,10.07
2022-12-03T18:03:35.706Z,11.50
2022-12-03T18:06:05.069Z,12.97
2022-12-03T18:08:33.653Z,11.10
2022-12-03T18:11:02.292Z,11.37
2022-12-03T18:13:30.936Z,11.30
2022-12-03T18:15:59.698Z,10.57
2022-12-03T18:18:29.038Z,13.47
2022-12-03T18:21:02.120Z,11.37
2022-12-03T18:23:31.618Z,11.90
2022-12-03T18:26:02.019Z,13.10
2022-12-03T18:28:31.248Z,11.80
2022-12-03T18:31:00.727Z,12.50
2022-12-03T18:33:29.755Z,11.50
2022-12-03T18:35:59.964Z,10.73
2022-12-03T18:38:32.554Z,12.47
2022-12-03T18:41:01.569Z,11.90
2022-12-03T18:43:30.869Z,9.97
2022-12-03T18:45:59.514Z,11.70
2022-12-03T18:48:28.152Z,10.20
2022-12-03T18:50:57.117Z,11.03
2022-12-03T18:53:26.990Z,12.30
2022-12-03T18:55:55.496Z,12.43
2022-12-03T18:58:23.974Z,11.17
2022-12-03T19:00:52.709Z,10.53
2022-12-03T19:03:21.936Z,10.83
2022-12-03T19:05:50.627Z,11.00
2022-12-03T19:08:23.308Z,11.03
2022-12-03T19:11:00.075Z,15.20
2022-12-03T19:13:29.477Z,11.40
2022-12-03T19:15:58.087Z,12.90
2022-12-03T19:18:26.970Z,12.57
2022-12-03T19:20:55.519Z,11.50
2022-12-03T19:23:24.656Z,10.83
2022-12-03T19:25:59.235Z,11.70
2022-12-03T19:28:29.107Z,10.60
2022-12-03T19:31:00.767Z,11.97
2022-12-03T19:33:31.006Z,11.50
2022-12-03T19:36:00.942Z,13.10
2022-12-03T19:38:31.363Z,12.00
2022-12-03T19:41:03.314Z,13.87
2022-12-03T19:43:32.877Z,12.80
2022-12-03T19:46:05.039Z,12.70
2022-12-03T19:48:35.759Z,12.03
2022-12-03T19:51:32.350Z,12.90
2022-12-03T19:53:55.420Z,12.00
2022-12-03T19:56:25.559Z,10.70
2022-12-03T19:58:56.719Z,11.20
2022-12-03T20:01:28.788Z,10.23
2022-12-03T20:04:00.194Z,10.10
2022-12-03T20:06:34.619Z,10.37
2022-12-03T20:09:07.659Z,11.23
2022-12-03T20:11:37.775Z,10.47
2022-12-03T20:14:09.174Z,10.87
2022-12-03T20:16:38.454Z,10.67
2022-12-03T20:19:11.162Z,10.13
2022-12-03T20:21:41.069Z,10.20
2022-12-03T20:24:18.266Z,11.50
2022-12-03T20:26:48.704Z,10.40
2022-12-03T20:29:17.938Z,9.20
2022-12-03T20:31:46.809Z,12.40
2022-12-03T20:34:15.657Z,11.00
2022-12-03T20:36:45.546Z,11.90
2022-12-03T20:39:14.151Z,10.67
2022-12-03T20:41:42.838Z,12.17
2022-12-03T20:44:13.934Z,11.53
2022-12-03T20:46:42.641Z,10.27
2022-12-03T20:49:11.255Z,12.50
2022-12-03T20:51:41.112Z,10.93
2022-12-03T20:54:10.621Z,11.00
2022-12-03T20:56:41.983Z,12.20
2022-12-03T20:59:15.766Z,11.80
2022-12-03T21:01:45.461Z,11.37
2022-12-03T21:04:16.150Z,12.00
2022-12-03T21:06:45.263Z,9.50
2022-12-03T21:09:14.890Z,11.27
2022-12-03T21:11:43.648Z,11.57
2022-12-03T21:14:13.670Z,12.10
2022-12-03T21:17:07.329Z,12.07
2022-12-03T21:19:35.210Z,12.40
2022-12-03T21:22:03.804Z,13.00
2022-12-03T21:24:32.385Z,12.50
2022-12-03T21:27:01.015Z,14.70
2022-12-03T21:29:31.336Z,11.30
2022-12-03T21:32:00.307Z,10.40
2022-12-03T21:34:35.783Z,11.93
2022-12-03T21:37:05.651Z,11.33
2022-12-03T21:39:34.308Z,10.60
2022-12-03T21:42:34.100Z,10.60
2022-12-03T21:44:53.559Z,10.77
2022-12-03T21:47:22.172Z,10.90
2022-12-03T21:49:50.731Z,12.23
2022-12-03T21:52:19.525Z,10.70
2022-12-03T21:54:48.291Z,11.40
2022-12-03T21:57:16.926Z,11.63
2022-12-03T21:59:45.461Z,11.30
2022-12-03T22:02:15.590Z,12.00
2022-12-03T22:04:44.364Z,10.83
2022-12-03T22:07:12.891Z,11.40
2022-12-03T22:09:44.882Z,10.50
2022-12-03T22:12:13.704Z,12.30
2022-12-03T22:14:42.352Z,11.37
2022-12-03T22:17:10.916Z,11.27
2022-12-03T22:19:40.821Z,11.00
2022-12-03T22:22:09.542Z,9.70
2022-12-03T22:24:38.608Z,10.20
2022-12-03T22:27:07.316Z,10.40
2022-12-03T22:29:35.965Z,9.77
2022-12-03T22:32:05.200Z,11.43
2022-12-03T22:34:34.539Z,10.87
2022-12-03T22:37:05.209Z,9.43
2022-12-03T22:39:34.046Z,9.93
2022-12-03T22:42:03.244Z,10.83
2022-12-03T22:44:32.006Z,9.63
2022-12-03T22:47:00.696Z,10.60
2022-12-03T22:49:29.601Z,10.90
2022-12-03T22:51:58.342Z,11.50
2022-12-03T22:54:28.474Z,10.43
2022-12-03T22:56:58.297Z,10.40
2022-12-03T22:59:27.085Z,10.17
2022-12-03T23:01:55.945Z,10.73
2022-12-03T23:04:28.093Z,11.40
2022-12-03T23:06:59.379Z,9.47
2022-12-03T23:09:30.025Z,11.00
2022-12-03T23:11:58.765Z,11.03
2022-12-03T23:14:27.466Z,10.30
2022-12-03T23:16:56.336Z,10.43
2022-12-03T23:19:25.226Z,10.77
2022-12-03T23:21:53.759Z,9.57
2022-12-03T23:24:22.372Z,10.23
2022-12-03T23:26:52.408Z,10.50
2022-12-03T23:29:20.942Z,10.00
2022-12-03T23:31:49.576Z,11.33
2022-12-03T23:34:18.677Z,10.27
2022-12-03T23:36:47.295Z,10.20
2022-12-03T23:39:15.872Z,10.50
2022-12-03T23:41:44.514Z,11.07
2022-12-03T23:44:14.334Z,11.40
2022-12-03T23:46:43.008Z,10.33
2022-12-03T23:49:11.864Z,10.40
2022-12-03T23:51:43.129Z,9.80
2022-12-03T23:54:15.699Z,10.90
2022-12-03T23:56:50.191Z,10.37
2022-12-03T23:59:21.929Z,11.30
